sensor_id;sensor_type;location;lat;lon;timestamp;P1;durP1;ratioP1;P2;durP2;ratioP2
64868;SDS011;51349;52.424;10.840;2024-02-26T00:00:43;2.33;;;2.13;;
64868;SDS011;51349;52.424;10.840;2024-02-26T00:05:46;3.33;;;2.10;;
64868;SDS011;51349;52.424;10.840;2024-02-26T00:10:47;2.40;;;2.20;;
64868;SDS011;51349;52.424;10.840;2024-02-26T00:15:47;2.80;;;2.60;;
64868;SDS011;51349;52.424;10.840;2024-02-26T00:20:48;3.17;;;2.20;;
64868;SDS011;51349;52.424;10.840;2024-02-26T00:25:48;2.07;;;1.93;;
64868;SDS011;51349;52.424;10.840;2024-02-26T00:30:49;2.87;;;2.17;;
64868;SDS011;51349;52.424;10.840;2024-02-26T00:35:51;2.37;;;2.20;;
64868;SDS011;51349;52.424;10.840;2024-02-26T00:40:51;2.63;;;2.43;;
64868;SDS011;51349;52.424;10.840;2024-02-26T00:45:52;2.70;;;2.50;;
64868;SDS011;51349;52.424;10.840;2024-02-26T00:50:53;3.10;;;2.80;;
64868;SDS011;51349;52.424;10.840;2024-02-26T00:55:53;2.73;;;2.53;;
64868;SDS011;51349;52.424;10.840;2024-02-26T01:00:54;3.33;;;3.03;;
64868;SDS011;51349;52.424;10.840;2024-02-26T01:05:55;3.33;;;3.03;;
64868;SDS011;51349;52.424;10.840;2024-02-26T01:10:55;3.60;;;3.00;;
64868;SDS011;51349;52.424;10.840;2024-02-26T01:15:56;4.57;;;3.13;;
64868;SDS011;51349;52.424;10.840;2024-02-26T01:20:56;3.20;;;2.67;;
64868;SDS011;51349;52.424;10.840;2024-02-26T01:25:57;2.90;;;2.60;;
64868;SDS011;51349;52.424;10.840;2024-02-26T01:30:58;3.93;;;2.80;;
64868;SDS011;51349;52.424;10.840;2024-02-26T01:35:59;2.90;;;2.43;;
64868;SDS011;51349;52.424;10.840;2024-02-26T01:41:00;3.07;;;2.77;;
64868;SDS011;51349;52.424;10.840;2024-02-26T01:46:01;3.03;;;2.73;;
64868;SDS011;51349;52.424;10.840;2024-02-26T01:51:03;4.60;;;2.60;;
64868;SDS011;51349;52.424;10.840;2024-02-26T01:56:04;2.77;;;2.57;;
64868;SDS011;51349;52.424;10.840;2024-02-26T02:01:05;3.00;;;2.57;;
64868;SDS011;51349;52.424;10.840;2024-02-26T02:06:05;3.10;;;2.90;;
64868;SDS011;51349;52.424;10.840;2024-02-26T02:11:07;2.67;;;2.43;;
64868;SDS011;51349;52.424;10.840;2024-02-26T02:16:10;3.47;;;2.70;;
64868;SDS011;51349;52.424;10.840;2024-02-26T02:21:10;2.70;;;2.50;;
64868;SDS011;51349;52.424;10.840;2024-02-26T02:26:14;2.80;;;2.60;;
64868;SDS011;51349;52.424;10.840;2024-02-26T02:31:16;3.10;;;2.77;;
64868;SDS011;51349;52.424;10.840;2024-02-26T02:36:17;3.00;;;2.80;;
64868;SDS011;51349;52.424;10.840;2024-02-26T02:41:17;3.00;;;2.80;;
64868;SDS011;51349;52.424;10.840;2024-02-26T02:46:19;3.90;;;3.00;;
64868;SDS011;51349;52.424;10.840;2024-02-26T02:51:19;3.10;;;2.63;;
64868;SDS011;51349;52.424;10.840;2024-02-26T02:56:20;2.70;;;2.50;;
64868;SDS011;51349;52.424;10.840;2024-02-26T03:01:21;2.90;;;2.70;;
64868;SDS011;51349;52.424;10.840;2024-02-26T03:06:21;2.97;;;2.63;;
64868;SDS011;51349;52.424;10.840;2024-02-26T03:11:23;3.63;;;3.27;;
64868;SDS011;51349;52.424;10.840;2024-02-26T03:16:23;3.17;;;2.83;;
64868;SDS011;51349;52.424;10.840;2024-02-26T03:21:25;3.10;;;2.83;;
64868;SDS011;51349;52.424;10.840;2024-02-26T03:26:25;3.17;;;2.87;;
64868;SDS011;51349;52.424;10.840;2024-02-26T03:31:26;3.10;;;2.90;;
64868;SDS011;51349;52.424;10.840;2024-02-26T03:36:27;4.97;;;3.00;;
64868;SDS011;51349;52.424;10.840;2024-02-26T03:41:27;2.90;;;2.70;;
64868;SDS011;51349;52.424;10.840;2024-02-26T03:46:28;3.10;;;2.70;;
64868;SDS011;51349;52.424;10.840;2024-02-26T03:51:29;3.37;;;3.07;;
64868;SDS011;51349;52.424;10.840;2024-02-26T03:56:31;3.30;;;3.00;;
64868;SDS011;51349;52.424;10.840;2024-02-26T04:01:32;3.27;;;2.97;;
64868;SDS011;51349;52.424;10.840;2024-02-26T04:06:32;3.50;;;3.20;;
64868;SDS011;51349;52.424;10.840;2024-02-26T04:11:33;3.13;;;2.93;;
64868;SDS011;51349;52.424;10.840;2024-02-26T04:16:36;3.33;;;3.03;;
64868;SDS011;51349;52.424;10.840;2024-02-26T04:21:37;3.43;;;3.13;;
64868;SDS011;51349;52.424;10.840;2024-02-26T04:26:37;3.77;;;3.43;;
64868;SDS011;51349;52.424;10.840;2024-02-26T04:31:38;4.63;;;3.40;;
64868;SDS011;51349;52.424;10.840;2024-02-26T04:36:39;3.70;;;3.30;;
64868;SDS011;51349;52.424;10.840;2024-02-26T04:41:40;3.17;;;2.97;;
64868;SDS011;51349;52.424;10.840;2024-02-26T04:46:40;3.90;;;3.30;;
64868;SDS011;51349;52.424;10.840;2024-02-26T04:51:41;3.50;;;3.20;;
64868;SDS011;51349;52.424;10.840;2024-02-26T04:56:42;3.70;;;3.40;;
64868;SDS011;51349;52.424;10.840;2024-02-26T05:01:42;5.30;;;3.87;;
64868;SDS011;51349;52.424;10.840;2024-02-26T05:06:43;3.77;;;3.37;;
64868;SDS011;51349;52.424;10.840;2024-02-26T05:11:44;3.80;;;3.50;;
64868;SDS011;51349;52.424;10.840;2024-02-26T05:16:44;3.70;;;3.40;;
64868;SDS011;51349;52.424;10.840;2024-02-26T05:21:45;3.60;;;3.30;;
64868;SDS011;51349;52.424;10.840;2024-02-26T05:26:49;4.50;;;3.43;;
64868;SDS011;51349;52.424;10.840;2024-02-26T05:31:49;3.60;;;3.30;;
64868;SDS011;51349;52.424;10.840;2024-02-26T05:36:50;3.70;;;3.40;;
64868;SDS011;51349;52.424;10.840;2024-02-26T05:41:51;3.87;;;3.23;;
64868;SDS011;51349;52.424;10.840;2024-02-26T05:46:51;5.80;;;3.77;;
64868;SDS011;51349;52.424;10.840;2024-02-26T05:51:52;3.60;;;3.20;;
64868;SDS011;51349;52.424;10.840;2024-02-26T05:56:52;3.87;;;3.57;;
64868;SDS011;51349;52.424;10.840;2024-02-26T06:01:53;4.03;;;3.73;;
64868;SDS011;51349;52.424;10.840;2024-02-26T06:06:54;4.57;;;4.17;;
64868;SDS011;51349;52.424;10.840;2024-02-26T06:11:54;6.70;;;4.03;;
64868;SDS011;51349;52.424;10.840;2024-02-26T06:16:55;4.87;;;4.37;;
64868;SDS011;51349;52.424;10.840;2024-02-26T06:21:56;7.90;;;3.73;;
64868;SDS011;51349;52.424;10.840;2024-02-26T06:26:56;4.13;;;3.77;;
64868;SDS011;51349;52.424;10.840;2024-02-26T06:31:57;5.07;;;4.30;;
64868;SDS011;51349;52.424;10.840;2024-02-26T06:36:57;4.70;;;4.30;;
64868;SDS011;51349;52.424;10.840;2024-02-26T06:41:58;7.10;;;4.47;;
64868;SDS011;51349;52.424;10.840;2024-02-26T06:47:01;6.00;;;5.13;;
64868;SDS011;51349;52.424;10.840;2024-02-26T06:52:02;5.83;;;5.23;;
64868;SDS011;51349;52.424;10.840;2024-02-26T06:57:03;6.33;;;5.10;;
64868;SDS011;51349;52.424;10.840;2024-02-26T07:02:04;6.43;;;4.90;;
64868;SDS011;51349;52.424;10.840;2024-02-26T07:07:04;4.70;;;4.30;;
64868;SDS011;51349;52.424;10.840;2024-02-26T07:12:05;4.53;;;4.13;;
64868;SDS011;51349;52.424;10.840;2024-02-26T07:17:06;4.80;;;4.37;;
64868;SDS011;51349;52.424;10.840;2024-02-26T07:22:07;5.30;;;3.87;;
64868;SDS011;51349;52.424;10.840;2024-02-26T07:27:07;4.23;;;3.87;;
64868;SDS011;51349;52.424;10.840;2024-02-26T07:32:09;4.87;;;4.37;;
64868;SDS011;51349;52.424;10.840;2024-02-26T07:37:11;3.87;;;3.57;;
64868;SDS011;51349;52.424;10.840;2024-02-26T07:42:18;4.10;;;3.70;;
64868;SDS011;51349;52.424;10.840;2024-02-26T07:47:19;4.03;;;3.67;;
64868;SDS011;51349;52.424;10.840;2024-02-26T07:52:20;5.60;;;4.33;;
64868;SDS011;51349;52.424;10.840;2024-02-26T07:57:22;4.57;;;4.13;;
64868;SDS011;51349;52.424;10.840;2024-02-26T08:02:22;4.97;;;4.53;;
64868;SDS011;51349;52.424;10.840;2024-02-26T08:07:23;4.37;;;3.97;;
64868;SDS011;51349;52.424;10.840;2024-02-26T08:12:24;6.47;;;5.33;;
64868;SDS011;51349;52.424;10.840;2024-02-26T08:17:24;4.40;;;4.07;;
64868;SDS011;51349;52.424;10.840;2024-02-26T08:22:25;4.47;;;4.07;;
64868;SDS011;51349;52.424;10.840;2024-02-26T08:27:26;4.37;;;3.97;;
64868;SDS011;51349;52.424;10.840;2024-02-26T08:32:26;4.90;;;4.50;;
64868;SDS011;51349;52.424;10.840;2024-02-26T08:37:27;4.40;;;4.03;;
64868;SDS011;51349;52.424;10.840;2024-02-26T08:42:28;4.40;;;4.00;;
64868;SDS011;51349;52.424;10.840;2024-02-26T08:47:29;5.07;;;4.43;;
64868;SDS011;51349;52.424;10.840;2024-02-26T08:52:29;4.83;;;4.30;;
64868;SDS011;51349;52.424;10.840;2024-02-26T08:57:31;4.67;;;4.23;;
64868;SDS011;51349;52.424;10.840;2024-02-26T09:02:33;4.20;;;3.80;;
64868;SDS011;51349;52.424;10.840;2024-02-26T09:07:34;4.93;;;4.27;;
64868;SDS011;51349;52.424;10.840;2024-02-26T09:12:35;4.27;;;3.87;;
64868;SDS011;51349;52.424;10.840;2024-02-26T09:17:36;4.80;;;4.30;;
64868;SDS011;51349;52.424;10.840;2024-02-26T09:22:37;5.13;;;4.27;;
64868;SDS011;51349;52.424;10.840;2024-02-26T09:27:38;5.57;;;4.43;;
64868;SDS011;51349;52.424;10.840;2024-02-26T09:32:39;4.80;;;4.40;;
64868;SDS011;51349;52.424;10.840;2024-02-26T09:37:40;4.70;;;4.00;;
64868;SDS011;51349;52.424;10.840;2024-02-26T09:42:44;4.60;;;4.20;;
64868;SDS011;51349;52.424;10.840;2024-02-26T09:47:45;7.37;;;5.70;;
64868;SDS011;51349;52.424;10.840;2024-02-26T09:52:49;5.40;;;4.90;;
64868;SDS011;51349;52.424;10.840;2024-02-26T09:57:51;4.80;;;4.40;;
64868;SDS011;51349;52.424;10.840;2024-02-26T10:02:52;4.80;;;4.40;;
64868;SDS011;51349;52.424;10.840;2024-02-26T10:07:56;8.00;;;5.80;;
64868;SDS011;51349;52.424;10.840;2024-02-26T10:12:59;5.90;;;5.30;;
64868;SDS011;51349;52.424;10.840;2024-02-26T10:18:00;5.73;;;4.60;;
64868;SDS011;51349;52.424;10.840;2024-02-26T10:23:04;4.60;;;4.20;;
64868;SDS011;51349;52.424;10.840;2024-02-26T10:28:05;5.30;;;4.80;;
64868;SDS011;51349;52.424;10.840;2024-02-26T10:33:07;6.83;;;5.00;;
64868;SDS011;51349;52.424;10.840;2024-02-26T10:38:08;6.13;;;4.87;;
64868;SDS011;51349;52.424;10.840;2024-02-26T10:43:09;10.97;;;6.80;;
64868;SDS011;51349;52.424;10.840;2024-02-26T10:48:09;5.47;;;4.90;;
64868;SDS011;51349;52.424;10.840;2024-02-26T10:53:17;6.33;;;5.20;;
64868;SDS011;51349;52.424;10.840;2024-02-26T10:58:21;4.73;;;4.07;;
64868;SDS011;51349;52.424;10.840;2024-02-26T11:03:22;6.30;;;4.80;;
64868;SDS011;51349;52.424;10.840;2024-02-26T11:08:25;5.47;;;4.97;;
64868;SDS011;51349;52.424;10.840;2024-02-26T11:13:27;6.63;;;5.30;;
64868;SDS011;51349;52.424;10.840;2024-02-26T11:18:30;5.80;;;5.30;;
64868;SDS011;51349;52.424;10.840;2024-02-26T11:23:31;5.03;;;4.63;;
64868;SDS011;51349;52.424;10.840;2024-02-26T11:28:35;5.93;;;5.33;;
64868;SDS011;51349;52.424;10.840;2024-02-26T11:33:37;4.90;;;4.40;;
64868;SDS011;51349;52.424;10.840;2024-02-26T11:38:38;6.97;;;5.20;;
64868;SDS011;51349;52.424;10.840;2024-02-26T11:59:57;5.93;;;5.37;;
64868;SDS011;51349;52.424;10.840;2024-02-26T12:10:13;4.87;;;4.47;;
64868;SDS011;51349;52.424;10.840;2024-02-26T12:15:30;6.60;;;6.00;;
64868;SDS011;51349;52.424;10.840;2024-02-26T12:20:33;6.43;;;5.20;;
64868;SDS011;51349;52.424;10.840;2024-02-26T12:25:35;5.40;;;4.90;;
64868;SDS011;51349;52.424;10.840;2024-02-26T12:30:35;6.07;;;5.47;;
64868;SDS011;51349;52.424;10.840;2024-02-26T12:35:36;7.40;;;5.67;;
64868;SDS011;51349;52.424;10.840;2024-02-26T12:40:37;7.57;;;6.07;;
64868;SDS011;51349;52.424;10.840;2024-02-26T12:45:39;6.10;;;5.50;;
64868;SDS011;51349;52.424;10.840;2024-02-26T12:50:44;6.17;;;5.57;;
64868;SDS011;51349;52.424;10.840;2024-02-26T12:55:47;5.67;;;5.17;;
64868;SDS011;51349;52.424;10.840;2024-02-26T13:00:47;5.77;;;5.27;;
64868;SDS011;51349;52.424;10.840;2024-02-26T13:05:49;5.73;;;5.10;;
64868;SDS011;51349;52.424;10.840;2024-02-26T13:10:51;6.17;;;5.57;;
64868;SDS011;51349;52.424;10.840;2024-02-26T13:16:05;6.50;;;5.90;;
64868;SDS011;51349;52.424;10.840;2024-02-26T13:21:12;8.10;;;6.57;;
64868;SDS011;51349;52.424;10.840;2024-02-26T13:26:17;7.50;;;6.70;;
64868;SDS011;51349;52.424;10.840;2024-02-26T13:31:21;7.37;;;6.57;;
64868;SDS011;51349;52.424;10.840;2024-02-26T13:36:23;7.50;;;6.60;;
64868;SDS011;51349;52.424;10.840;2024-02-26T13:41:24;7.00;;;6.40;;
64868;SDS011;51349;52.424;10.840;2024-02-26T13:46:26;6.33;;;5.73;;
64868;SDS011;51349;52.424;10.840;2024-02-26T13:51:27;6.77;;;6.07;;
64868;SDS011;51349;52.424;10.840;2024-02-26T13:56:29;7.27;;;6.57;;
64868;SDS011;51349;52.424;10.840;2024-02-26T14:01:30;7.73;;;6.77;;
64868;SDS011;51349;52.424;10.840;2024-02-26T14:06:33;7.23;;;6.53;;
64868;SDS011;51349;52.424;10.840;2024-02-26T14:11:33;8.00;;;6.20;;
64868;SDS011;51349;52.424;10.840;2024-02-26T14:16:34;6.60;;;6.00;;
64868;SDS011;51349;52.424;10.840;2024-02-26T14:21:35;8.87;;;6.73;;
64868;SDS011;51349;52.424;10.840;2024-02-26T14:26:37;7.13;;;6.43;;
64868;SDS011;51349;52.424;10.840;2024-02-26T14:31:39;7.60;;;6.67;;
64868;SDS011;51349;52.424;10.840;2024-02-26T14:36:39;8.50;;;7.10;;
64868;SDS011;51349;52.424;10.840;2024-02-26T14:41:41;9.73;;;7.13;;
64868;SDS011;51349;52.424;10.840;2024-02-26T14:46:42;7.10;;;6.40;;
64868;SDS011;51349;52.424;10.840;2024-02-26T14:51:43;6.53;;;5.93;;
64868;SDS011;51349;52.424;10.840;2024-02-26T14:56:45;6.37;;;5.77;;
64868;SDS011;51349;52.424;10.840;2024-02-26T15:01:46;6.17;;;5.50;;
64868;SDS011;51349;52.424;10.840;2024-02-26T15:06:47;7.17;;;6.47;;
64868;SDS011;51349;52.424;10.840;2024-02-26T15:11:48;6.57;;;5.97;;
64868;SDS011;51349;52.424;10.840;2024-02-26T15:16:49;6.97;;;6.27;;
64868;SDS011;51349;52.424;10.840;2024-02-26T15:21:52;8.97;;;7.17;;
64868;SDS011;51349;52.424;10.840;2024-02-26T15:26:52;9.27;;;7.50;;
64868;SDS011;51349;52.424;10.840;2024-02-26T15:31:53;9.77;;;8.20;;
64868;SDS011;51349;52.424;10.840;2024-02-26T15:36:54;8.57;;;6.40;;
64868;SDS011;51349;52.424;10.840;2024-02-26T15:41:54;7.23;;;6.37;;
64868;SDS011;51349;52.424;10.840;2024-02-26T15:46:57;7.93;;;6.90;;
64868;SDS011;51349;52.424;10.840;2024-02-26T15:51:58;6.73;;;6.13;;
64868;SDS011;51349;52.424;10.840;2024-02-26T15:56:58;7.33;;;6.03;;
64868;SDS011;51349;52.424;10.840;2024-02-26T16:01:59;7.47;;;6.33;;
64868;SDS011;51349;52.424;10.840;2024-02-26T16:07:01;6.30;;;5.70;;
64868;SDS011;51349;52.424;10.840;2024-02-26T16:12:11;5.80;;;5.30;;
64868;SDS011;51349;52.424;10.840;2024-02-26T16:22:31;6.13;;;5.30;;
64868;SDS011;51349;52.424;10.840;2024-02-26T16:27:32;5.47;;;4.97;;
64868;SDS011;51349;52.424;10.840;2024-02-26T16:32:33;5.47;;;4.97;;
64868;SDS011;51349;52.424;10.840;2024-02-26T16:37:37;4.93;;;4.43;;
64868;SDS011;51349;52.424;10.840;2024-02-26T16:42:37;6.00;;;4.90;;
64868;SDS011;51349;52.424;10.840;2024-02-26T16:47:38;4.97;;;4.47;;
64868;SDS011;51349;52.424;10.840;2024-02-26T16:52:41;6.53;;;5.23;;
64868;SDS011;51349;52.424;10.840;2024-02-26T16:57:42;5.53;;;4.07;;
64868;SDS011;51349;52.424;10.840;2024-02-26T17:02:42;3.80;;;3.50;;
64868;SDS011;51349;52.424;10.840;2024-02-26T17:07:44;2.93;;;2.63;;
64868;SDS011;51349;52.424;10.840;2024-02-26T17:12:46;3.30;;;3.10;;
64868;SDS011;51349;52.424;10.840;2024-02-26T17:17:47;3.30;;;3.00;;
64868;SDS011;51349;52.424;10.840;2024-02-26T17:22:47;3.90;;;3.37;;
64868;SDS011;51349;52.424;10.840;2024-02-26T17:27:48;4.03;;;3.37;;
64868;SDS011;51349;52.424;10.840;2024-02-26T17:32:50;3.20;;;2.90;;
64868;SDS011;51349;52.424;10.840;2024-02-26T17:37:50;3.37;;;3.07;;
64868;SDS011;51349;52.424;10.840;2024-02-26T17:42:51;3.77;;;3.47;;
64868;SDS011;51349;52.424;10.840;2024-02-26T17:47:52;5.30;;;4.57;;
64868;SDS011;51349;52.424;10.840;2024-02-26T17:52:52;3.50;;;3.20;;
64868;SDS011;51349;52.424;10.840;2024-02-26T17:57:55;2.80;;;2.60;;
64868;SDS011;51349;52.424;10.840;2024-02-26T18:02:56;2.47;;;2.37;;
64868;SDS011;51349;52.424;10.840;2024-02-26T18:07:57;3.10;;;2.83;;
64868;SDS011;51349;52.424;10.840;2024-02-26T18:12:58;3.07;;;2.50;;
64868;SDS011;51349;52.424;10.840;2024-02-26T18:17:59;2.87;;;2.67;;
64868;SDS011;51349;52.424;10.840;2024-02-26T18:22:59;2.97;;;2.70;;
64868;SDS011;51349;52.424;10.840;2024-02-26T18:28:00;3.23;;;2.50;;
64868;SDS011;51349;52.424;10.840;2024-02-26T18:33:01;2.80;;;2.60;;
64868;SDS011;51349;52.424;10.840;2024-02-26T18:38:03;2.37;;;2.20;;
64868;SDS011;51349;52.424;10.840;2024-02-26T18:43:04;2.40;;;1.90;;
64868;SDS011;51349;52.424;10.840;2024-02-26T18:48:06;2.20;;;2.03;;
64868;SDS011;51349;52.424;10.840;2024-02-26T18:53:07;2.30;;;2.10;;
64868;SDS011;51349;52.424;10.840;2024-02-26T18:58:08;2.03;;;1.93;;
64868;SDS011;51349;52.424;10.840;2024-02-26T19:03:08;2.20;;;2.10;;
64868;SDS011;51349;52.424;10.840;2024-02-26T19:08:09;2.40;;;2.20;;
64868;SDS011;51349;52.424;10.840;2024-02-26T19:13:10;2.10;;;2.00;;
64868;SDS011;51349;52.424;10.840;2024-02-26T19:18:11;2.70;;;2.50;;
64868;SDS011;51349;52.424;10.840;2024-02-26T19:23:12;2.70;;;2.50;;
64868;SDS011;51349;52.424;10.840;2024-02-26T19:28:13;2.80;;;2.60;;
64868;SDS011;51349;52.424;10.840;2024-02-26T19:33:15;2.70;;;2.50;;
64868;SDS011;51349;52.424;10.840;2024-02-26T19:38:16;3.13;;;2.83;;
64868;SDS011;51349;52.424;10.840;2024-02-26T19:43:17;3.47;;;2.90;;
64868;SDS011;51349;52.424;10.840;2024-02-26T19:48:18;4.10;;;3.07;;
64868;SDS011;51349;52.424;10.840;2024-02-26T19:53:19;3.30;;;3.10;;
64868;SDS011;51349;52.424;10.840;2024-02-26T19:58:19;3.10;;;2.90;;
64868;SDS011;51349;52.424;10.840;2024-02-26T20:03:20;3.97;;;3.57;;
64868;SDS011;51349;52.424;10.840;2024-02-26T20:08:21;3.80;;;3.50;;
64868;SDS011;51349;52.424;10.840;2024-02-26T20:13:21;3.40;;;3.20;;
64868;SDS011;51349;52.424;10.840;2024-02-26T20:18:27;5.57;;;3.60;;
64868;SDS011;51349;52.424;10.840;2024-02-26T20:23:28;4.23;;;3.83;;
64868;SDS011;51349;52.424;10.840;2024-02-26T20:28:28;3.70;;;3.40;;
64868;SDS011;51349;52.424;10.840;2024-02-26T20:33:31;4.13;;;3.80;;
64868;SDS011;51349;52.424;10.840;2024-02-26T20:38:32;3.87;;;3.57;;
64868;SDS011;51349;52.424;10.840;2024-02-26T20:43:33;4.17;;;3.73;;
64868;SDS011;51349;52.424;10.840;2024-02-26T20:48:34;3.87;;;3.57;;
64868;SDS011;51349;52.424;10.840;2024-02-26T20:53:34;4.27;;;3.87;;
64868;SDS011;51349;52.424;10.840;2024-02-26T20:58:36;4.50;;;4.10;;
64868;SDS011;51349;52.424;10.840;2024-02-26T21:03:37;4.33;;;4.00;;
64868;SDS011;51349;52.424;10.840;2024-02-26T21:08:38;4.40;;;4.07;;
64868;SDS011;51349;52.424;10.840;2024-02-26T21:13:39;4.60;;;4.20;;
64868;SDS011;51349;52.424;10.840;2024-02-26T21:18:40;5.13;;;4.67;;
64868;SDS011;51349;52.424;10.840;2024-02-26T21:23:42;5.50;;;4.97;;
64868;SDS011;51349;52.424;10.840;2024-02-26T21:28:43;5.87;;;5.33;;
64868;SDS011;51349;52.424;10.840;2024-02-26T21:33:44;6.60;;;5.53;;
64868;SDS011;51349;52.424;10.840;2024-02-26T21:38:44;6.73;;;6.07;;
64868;SDS011;51349;52.424;10.840;2024-02-26T21:43:45;8.43;;;6.63;;
64868;SDS011;51349;52.424;10.840;2024-02-26T21:48:50;7.73;;;6.90;;
64868;SDS011;51349;52.424;10.840;2024-02-26T21:53:50;8.37;;;7.23;;
64868;SDS011;51349;52.424;10.840;2024-02-26T21:58:51;8.23;;;7.27;;
64868;SDS011;51349;52.424;10.840;2024-02-26T22:03:51;8.63;;;7.40;;
64868;SDS011;51349;52.424;10.840;2024-02-26T22:08:52;8.57;;;7.67;;
64868;SDS011;51349;52.424;10.840;2024-02-26T22:13:54;8.97;;;7.60;;
64868;SDS011;51349;52.424;10.840;2024-02-26T22:18:54;8.63;;;7.60;;
64868;SDS011;51349;52.424;10.840;2024-02-26T22:23:55;10.93;;;8.37;;
64868;SDS011;51349;52.424;10.840;2024-02-26T22:28:56;12.37;;;8.60;;
64868;SDS011;51349;52.424;10.840;2024-02-26T22:33:56;9.80;;;7.60;;
64868;SDS011;51349;52.424;10.840;2024-02-26T22:38:57;9.60;;;8.33;;
64868;SDS011;51349;52.424;10.840;2024-02-26T22:43:57;9.63;;;8.53;;
64868;SDS011;51349;52.424;10.840;2024-02-26T22:48:58;11.70;;;8.43;;
64868;SDS011;51349;52.424;10.840;2024-02-26T22:53:58;11.17;;;7.77;;
64868;SDS011;51349;52.424;10.840;2024-02-26T22:58:59;12.23;;;8.47;;
64868;SDS011;51349;52.424;10.840;2024-02-26T23:04:04;10.73;;;8.60;;
64868;SDS011;51349;52.424;10.840;2024-02-26T23:09:05;12.53;;;9.23;;
64868;SDS011;51349;52.424;10.840;2024-02-26T23:14:07;13.00;;;9.33;;
64868;SDS011;51349;52.424;10.840;2024-02-26T23:19:08;12.07;;;8.63;;
64868;SDS011;51349;52.424;10.840;2024-02-26T23:24:09;14.77;;;10.33;;
64868;SDS011;51349;52.424;10.840;2024-02-26T23:29:09;14.27;;;9.77;;
64868;SDS011;51349;52.424;10.840;2024-02-26T23:34:10;13.30;;;10.37;;
64868;SDS011;51349;52.424;10.840;2024-02-26T23:39:11;11.47;;;9.63;;
64868;SDS011;51349;52.424;10.840;2024-02-26T23:44:11;14.03;;;10.27;;
64868;SDS011;51349;52.424;10.840;2024-02-26T23:49:12;14.53;;;10.30;;
64868;SDS011;51349;52.424;10.840;2024-02-26T23:54:13;12.67;;;9.80;;
64868;SDS011;51349;52.424;10.840;2024-02-26T23:59:13;14.83;;;10.37;;
